Ana Sayfa
METAR-TAF:

METAR-TAF

Havaalanları :

Şanlıurfa GAP Havalimanı

Şanlıurfa, Türkiye

Enlem: 37-27N, Boylam: 38-54E, yükseklik: 823 m

Güncel hava durumu gözlemi

Rapor saat 17:20 UTC de 35 dakika önce yapıldı.
Rüzgar kuzeybatıdan 7 kt
Sıcaklık 29°C
Nem 19%
Basınç 1005 hPa
Görüş mesafesi 10 km veya daha fazla
1500 m altında bulut yok ve kümülonimbus yok

METAR: LTCS 181720Z 32007KT CAVOK 29/03 Q1005 RMK RWY22 34009KT

Saat: 20:55 (17:55 UTC)

Tahmin

Rapor saat 16:40 UTC de 1 saat ve 15 dakika önce yapıldı.
Ayın 18'si saat 18 UTC'den ayın 19'si saat 18 UTC'ye kadar geçerli Tahmin
Rüzgar kuzey/kuzeybatıdan 12 kt
Görüş mesafesi 10 km veya daha fazla
1500 m altında bulut yok ve kümülonimbus yok

TAF: LTCS 181640Z 1818/1918 34012KT CAVOK

4.000'den fazla havaalanı için hava durumu gözlemleri ve tahminleri (METAR ve TAF raporları).

Kullanılabilir istasyonlar harita üzerinde sarı ve kırmızı noktalarla gösterilir.

İstasyonun adını görmek için fareyi noktanın üzerinde gezdirin.

Sonrasında hava gözlem ve tahminlerini görmek için tıklayın.

Haritayı değiştirmek için: yaklaştırmak için siyah artı işaretli yeşil düğmeye ve uzaklaştırmak için de eksi işaretli düğmeye hızla tıklayın; bitişik haritalar için yeşil okları kullanın.


METAR-TAF: